sensor_id;sensor_type;location;lat;lon;timestamp;pressure;altitude;pressure_sealevel;temperature;humidity
18918;BME280;9591;52.742;13.650;2022-10-31T00:00:51;101389.03;;;8.80;100.00
18918;BME280;9591;52.742;13.650;2022-10-31T00:03:38;101391.72;;;8.77;100.00
18918;BME280;9591;52.742;13.650;2022-10-31T00:06:25;101392.56;;;8.79;100.00
18918;BME280;9591;52.742;13.650;2022-10-31T00:09:12;101395.97;;;8.87;100.00
18918;BME280;9591;52.742;13.650;2022-10-31T00:11:59;101396.84;;;8.86;100.00
18918;BME280;9591;52.742;13.650;2022-10-31T00:14:46;101391.56;;;8.86;100.00
18918;BME280;9591;52.742;13.650;2022-10-31T00:17:35;101398.59;;;8.88;100.00
18918;BME280;9591;52.742;13.650;2022-10-31T00:20:22;101399.53;;;8.84;100.00
18918;BME280;9591;52.742;13.650;2022-10-31T00:23:09;101403.91;;;8.85;100.00
18918;BME280;9591;52.742;13.650;2022-10-31T00:26:00;101403.94;;;8.84;100.00
18918;BME280;9591;52.742;13.650;2022-10-31T00:28:47;101404.00;;;8.79;100.00
18918;BME280;9591;52.742;13.650;2022-10-31T00:31:34;101403.03;;;8.85;100.00
18918;BME280;9591;52.742;13.650;2022-10-31T00:34:22;101402.09;;;8.89;100.00
18918;BME280;9591;52.742;13.650;2022-10-31T00:37:09;101406.47;;;8.92;100.00
18918;BME280;9591;52.742;13.650;2022-10-31T00:39:56;101412.59;;;8.94;100.00
18918;BME280;9591;52.742;13.650;2022-10-31T00:42:43;101415.31;;;8.89;100.00
18918;BME280;9591;52.742;13.650;2022-10-31T00:45:30;101412.66;;;8.89;100.00
18918;BME280;9591;52.742;13.650;2022-10-31T00:48:17;101411.78;;;8.88;100.00
18918;BME280;9591;52.742;13.650;2022-10-31T00:51:05;101413.66;;;8.82;100.00
18918;BME280;9591;52.742;13.650;2022-10-31T00:53:52;101421.59;;;8.80;100.00
18918;BME280;9591;52.742;13.650;2022-10-31T00:56:39;101425.09;;;8.81;100.00
18918;BME280;9591;52.742;13.650;2022-10-31T00:59:26;101422.53;;;8.76;100.00
18918;BME280;9591;52.742;13.650;2022-10-31T01:02:13;101419.94;;;8.72;100.00
18918;BME280;9591;52.742;13.650;2022-10-31T01:05:00;101423.59;;;8.65;100.00
18918;BME280;9591;52.742;13.650;2022-10-31T01:07:48;101418.34;;;8.63;100.00
18918;BME280;9591;52.742;13.650;2022-10-31T01:10:35;101421.00;;;8.62;100.00
18918;BME280;9591;52.742;13.650;2022-10-31T01:13:22;101428.09;;;8.58;100.00
18918;BME280;9591;52.742;13.650;2022-10-31T01:16:11;101421.06;;;8.57;100.00
18918;BME280;9591;52.742;13.650;2022-10-31T01:18:58;101422.88;;;8.52;100.00
18918;BME280;9591;52.742;13.650;2022-10-31T01:21:45;101421.22;;;8.45;100.00
18918;BME280;9591;52.742;13.650;2022-10-31T01:24:33;101436.19;;;8.43;100.00
18918;BME280;9591;52.742;13.650;2022-10-31T01:27:20;101437.09;;;8.42;100.00
18918;BME280;9591;52.742;13.650;2022-10-31T01:30:08;101438.88;;;8.38;100.00
18918;BME280;9591;52.742;13.650;2022-10-31T01:32:54;101438.94;;;8.34;100.00
18918;BME280;9591;52.742;13.650;2022-10-31T01:35:41;101440.72;;;8.29;100.00
18918;BME280;9591;52.742;13.650;2022-10-31T01:38:30;101440.81;;;8.21;100.00
18918;BME280;9591;52.742;13.650;2022-10-31T01:41:22;101444.34;;;8.18;100.00
18918;BME280;9591;52.742;13.650;2022-10-31T01:47:41;101442.66;;;8.14;100.00
18918;BME280;9591;52.742;13.650;2022-10-31T01:50:32;101445.31;;;8.11;100.00
18918;BME280;9591;52.742;13.650;2022-10-31T01:53:22;101437.22;;;8.27;100.00
18918;BME280;9591;52.742;13.650;2022-10-31T01:56:13;101450.22;;;8.46;100.00
18918;BME280;9591;52.742;13.650;2022-10-31T01:59:04;101449.47;;;8.35;100.00
18918;BME280;9591;52.742;13.650;2022-10-31T02:01:54;101445.16;;;8.25;100.00
18918;BME280;9591;52.742;13.650;2022-10-31T02:04:41;101445.91;;;8.41;100.00
18918;BME280;9591;52.742;13.650;2022-10-31T02:07:33;101449.47;;;8.35;100.00
18918;BME280;9591;52.742;13.650;2022-10-31T02:10:23;101438.88;;;8.38;100.00
18918;BME280;9591;52.742;13.650;2022-10-31T02:13:11;101445.03;;;8.39;100.00
18918;BME280;9591;52.742;13.650;2022-10-31T02:16:08;101458.28;;;8.31;100.00
18918;BME280;9591;52.742;13.650;2022-10-31T02:18:56;101453.94;;;8.27;100.00
18918;BME280;9591;52.742;13.650;2022-10-31T02:21:49;101453.97;;;8.24;100.00
18918;BME280;9591;52.742;13.650;2022-10-31T02:24:45;101457.50;;;8.25;100.00
18918;BME280;9591;52.742;13.650;2022-10-31T02:28:01;101461.00;;;8.25;100.00
18918;BME280;9591;52.742;13.650;2022-10-31T02:31:01;101455.75;;;8.23;100.00
18918;BME280;9591;52.742;13.650;2022-10-31T02:33:56;101463.59;;;8.30;100.00
18918;BME280;9591;52.742;13.650;2022-10-31T02:36:52;101450.38;;;8.34;100.00
18918;BME280;9591;52.742;13.650;2022-10-31T02:39:47;101459.22;;;8.27;100.00
18918;BME280;9591;52.742;13.650;2022-10-31T02:42:49;101455.69;;;8.28;100.00
18918;BME280;9591;52.742;13.650;2022-10-31T02:45:43;101453.97;;;8.24;100.00
18918;BME280;9591;52.742;13.650;2022-10-31T02:48:38;101451.25;;;8.30;100.00
18918;BME280;9591;52.742;13.650;2022-10-31T02:51:26;101449.50;;;8.31;100.00
18918;BME280;9591;52.742;13.650;2022-10-31T02:54:18;101444.28;;;8.26;100.00
18918;BME280;9591;52.742;13.650;2022-10-31T02:57:08;101455.72;;;8.27;100.00
18918;BME280;9591;52.742;13.650;2022-10-31T02:59:59;101459.19;;;8.29;100.00
18918;BME280;9591;52.742;13.650;2022-10-31T03:02:55;101459.28;;;8.21;100.00
18918;BME280;9591;52.742;13.650;2022-10-31T03:05:55;101460.22;;;8.17;100.00
18918;BME280;9591;52.742;13.650;2022-10-31T03:08:50;101454.97;;;8.14;100.00
18918;BME280;9591;52.742;13.650;2022-10-31T03:11:45;101454.09;;;8.13;100.00
18918;BME280;9591;52.742;13.650;2022-10-31T03:14:40;101454.13;;;8.09;100.00
18918;BME280;9591;52.742;13.650;2022-10-31T03:17:32;101447.97;;;8.10;100.00
18918;BME280;9591;52.742;13.650;2022-10-31T03:20:24;101455.06;;;8.05;100.00
18918;BME280;9591;52.742;13.650;2022-10-31T03:23:16;101457.69;;;8.05;100.00
18918;BME280;9591;52.742;13.650;2022-10-31T03:26:09;101459.47;;;8.03;100.00
18918;BME280;9591;52.742;13.650;2022-10-31T03:29:02;101457.75;;;7.99;100.00
18918;BME280;9591;52.742;13.650;2022-10-31T03:31:54;101456.00;;;7.98;100.00
18918;BME280;9591;52.742;13.650;2022-10-31T03:34:44;101445.56;;;7.85;100.00
18918;BME280;9591;52.742;13.650;2022-10-31T03:37:37;101466.63;;;7.90;100.00
18918;BME280;9591;52.742;13.650;2022-10-31T03:40:33;101471.06;;;7.86;100.00
18918;BME280;9591;52.742;13.650;2022-10-31T03:43:26;101471.09;;;7.83;100.00
18918;BME280;9591;52.742;13.650;2022-10-31T03:46:15;101478.13;;;7.83;100.00
18918;BME280;9591;52.742;13.650;2022-10-31T03:49:02;101477.31;;;7.78;100.00
18918;BME280;9591;52.742;13.650;2022-10-31T03:51:56;101485.25;;;7.75;100.00
18918;BME280;9591;52.742;13.650;2022-10-31T03:54:45;101478.28;;;7.68;100.00
18918;BME280;9591;52.742;13.650;2022-10-31T03:57:37;101499.38;;;7.71;100.00
18918;BME280;9591;52.742;13.650;2022-10-31T04:00:29;101510.56;;;7.94;100.00
18918;BME280;9591;52.742;13.650;2022-10-31T04:03:20;101509.56;;;8.07;100.00
18918;BME280;9591;52.742;13.650;2022-10-31T04:06:12;101513.16;;;7.97;100.00
18918;BME280;9591;52.742;13.650;2022-10-31T04:09:03;101519.38;;;7.90;100.00
18918;BME280;9591;52.742;13.650;2022-10-31T04:11:54;101503.56;;;7.90;100.00
18918;BME280;9591;52.742;13.650;2022-10-31T04:14:56;101512.31;;;7.94;100.00
18918;BME280;9591;52.742;13.650;2022-10-31T04:17:45;101514.97;;;7.92;100.00
18918;BME280;9591;52.742;13.650;2022-10-31T04:20:37;101518.47;;;7.93;100.00
18918;BME280;9591;52.742;13.650;2022-10-31T04:23:26;101517.53;;;8.00;100.00
18918;BME280;9591;52.742;13.650;2022-10-31T04:26:13;101516.66;;;7.99;100.00
18918;BME280;9591;52.742;13.650;2022-10-31T04:29:02;101493.16;;;7.76;100.00
18918;BME280;9591;52.742;13.650;2022-10-31T04:31:50;101519.38;;;7.90;100.00
18918;BME280;9591;52.742;13.650;2022-10-31T04:34:37;101521.19;;;7.83;100.00
18918;BME280;9591;52.742;13.650;2022-10-31T04:37:24;101516.00;;;7.79;100.00
18918;BME280;9591;52.742;13.650;2022-10-31T04:40:11;101518.56;;;7.82;100.00
18918;BME280;9591;52.742;13.650;2022-10-31T04:43:03;101516.00;;;7.79;100.00
18918;BME280;9591;52.742;13.650;2022-10-31T04:45:50;101512.50;;;7.78;100.00
18918;BME280;9591;52.742;13.650;2022-10-31T04:48:40;101514.25;;;7.78;100.00
18918;BME280;9591;52.742;13.650;2022-10-31T04:51:26;101510.72;;;7.79;100.00
18918;BME280;9591;52.742;13.650;2022-10-31T04:54:13;101511.63;;;7.76;100.00
18918;BME280;9591;52.742;13.650;2022-10-31T04:57:12;101518.66;;;7.76;100.00
18918;BME280;9591;52.742;13.650;2022-10-31T05:00:00;101515.16;;;7.75;100.00
18918;BME280;9591;52.742;13.650;2022-10-31T05:02:48;101518.66;;;7.77;100.00
18918;BME280;9591;52.742;13.650;2022-10-31T05:05:36;101522.97;;;7.81;100.00
18918;BME280;9591;52.742;13.650;2022-10-31T05:08:23;101524.69;;;7.85;100.00
18918;BME280;9591;52.742;13.650;2022-10-31T05:11:11;101522.94;;;7.84;100.00
18918;BME280;9591;52.742;13.650;2022-10-31T05:13:58;101535.22;;;7.88;100.00
18918;BME280;9591;52.742;13.650;2022-10-31T05:17:14;101523.75;;;7.93;100.00
18918;BME280;9591;52.742;13.650;2022-10-31T05:20:33;101529.06;;;7.89;100.00
18918;BME280;9591;52.742;13.650;2022-10-31T05:23:31;101534.38;;;7.83;100.00
18918;BME280;9591;52.742;13.650;2022-10-31T05:26:18;101526.44;;;7.86;100.00
18918;BME280;9591;52.742;13.650;2022-10-31T05:29:05;101529.13;;;7.82;100.00
18918;BME280;9591;52.742;13.650;2022-10-31T05:31:53;101533.59;;;7.78;100.00
18918;BME280;9591;52.742;13.650;2022-10-31T05:35:03;101530.09;;;7.73;100.00
18918;BME280;9591;52.742;13.650;2022-10-31T05:38:10;101529.25;;;7.70;100.00
18918;BME280;9591;52.742;13.650;2022-10-31T05:40:59;101536.28;;;7.71;100.00
18918;BME280;9591;52.742;13.650;2022-10-31T05:43:49;101534.53;;;7.70;100.00
18918;BME280;9591;52.742;13.650;2022-10-31T05:46:42;101541.53;;;7.74;100.00
18918;BME280;9591;52.742;13.650;2022-10-31T05:49:47;101541.56;;;7.71;100.00
18918;BME280;9591;52.742;13.650;2022-10-31T05:52:55;101550.38;;;7.67;100.00
18918;BME280;9591;52.742;13.650;2022-10-31T05:55:47;101560.09;;;7.60;100.00
18918;BME280;9591;52.742;13.650;2022-10-31T05:58:38;101552.16;;;7.62;100.00
18918;BME280;9591;52.742;13.650;2022-10-31T06:01:25;101557.44;;;7.60;100.00
18918;BME280;9591;52.742;13.650;2022-10-31T06:04:14;101559.22;;;7.60;100.00
18918;BME280;9591;52.742;13.650;2022-10-31T06:07:01;101558.28;;;7.65;100.00
18918;BME280;9591;52.742;13.650;2022-10-31T06:09:48;101563.50;;;7.74;100.00
18918;BME280;9591;52.742;13.650;2022-10-31T06:12:38;101559.84;;;7.89;100.00
18918;BME280;9591;52.742;13.650;2022-10-31T06:15:46;101562.47;;;7.92;100.00
18918;BME280;9591;52.742;13.650;2022-10-31T06:18:35;101567.72;;;7.95;100.00
18918;BME280;9591;52.742;13.650;2022-10-31T06:21:22;101572.06;;;7.99;100.00
18918;BME280;9591;52.742;13.650;2022-10-31T06:24:09;101571.97;;;8.10;100.00
18918;BME280;9591;52.742;13.650;2022-10-31T06:27:22;101566.66;;;8.16;100.00
18918;BME280;9591;52.742;13.650;2022-10-31T06:30:10;101570.97;;;8.25;100.00
18918;BME280;9591;52.742;13.650;2022-10-31T06:33:02;101576.22;;;8.28;100.00
18918;BME280;9591;52.742;13.650;2022-10-31T06:35:53;101570.88;;;8.38;100.00
18918;BME280;9591;52.742;13.650;2022-10-31T06:38:40;101579.59;;;8.46;100.00
18918;BME280;9591;52.742;13.650;2022-10-31T06:41:27;101581.34;;;8.47;100.00
18918;BME280;9591;52.742;13.650;2022-10-31T06:44:14;101575.09;;;8.56;100.00
18918;BME280;9591;52.742;13.650;2022-10-31T06:47:16;101585.50;;;8.67;100.00
18918;BME280;9591;52.742;13.650;2022-10-31T06:50:15;101589.81;;;8.75;100.00
18918;BME280;9591;52.742;13.650;2022-10-31T06:53:05;101597.72;;;8.77;100.00
18918;BME280;9591;52.742;13.650;2022-10-31T06:55:51;101606.50;;;8.79;100.00
18918;BME280;9591;52.742;13.650;2022-10-31T06:58:40;101610.84;;;8.86;100.00
18918;BME280;9591;52.742;13.650;2022-10-31T07:01:29;101607.22;;;8.95;100.00
18918;BME280;9591;52.742;13.650;2022-10-31T07:04:17;101612.31;;;9.10;100.00
18918;BME280;9591;52.742;13.650;2022-10-31T07:07:06;101611.34;;;9.18;100.00
18918;BME280;9591;52.742;13.650;2022-10-31T07:09:55;101620.00;;;9.30;100.00
18918;BME280;9591;52.742;13.650;2022-10-31T07:13:00;101610.13;;;9.44;100.00
18918;BME280;9591;52.742;13.650;2022-10-31T07:15:50;101609.06;;;9.54;100.00
18918;BME280;9591;52.742;13.650;2022-10-31T07:18:36;101609.66;;;9.74;100.00
18918;BME280;9591;52.742;13.650;2022-10-31T07:21:23;101609.44;;;9.90;100.00
18918;BME280;9591;52.742;13.650;2022-10-31T07:24:11;101619.72;;;10.08;100.00
18918;BME280;9591;52.742;13.650;2022-10-31T07:27:01;101616.81;;;10.26;100.00
18918;BME280;9591;52.742;13.650;2022-10-31T07:29:48;101612.84;;;10.50;100.00
18918;BME280;9591;52.742;13.650;2022-10-31T07:32:38;101615.06;;;10.73;100.00
18918;BME280;9591;52.742;13.650;2022-10-31T07:35:27;101613.69;;;10.98;100.00
18918;BME280;9591;52.742;13.650;2022-10-31T07:38:16;101618.88;;;11.04;100.00
18918;BME280;9591;52.742;13.650;2022-10-31T07:41:04;101616.69;;;11.25;100.00
18918;BME280;9591;52.742;13.650;2022-10-31T07:43:56;101625.00;;;11.48;100.00
18918;BME280;9591;52.742;13.650;2022-10-31T07:47:12;101621.56;;;11.85;100.00
18918;BME280;9591;52.742;13.650;2022-10-31T07:50:20;101623.66;;;12.07;100.00
18918;BME280;9591;52.742;13.650;2022-10-31T07:53:39;101628.41;;;12.29;100.00
18918;BME280;9591;52.742;13.650;2022-10-31T07:56:41;101626.38;;;12.40;100.00
18918;BME280;9591;52.742;13.650;2022-10-31T07:59:27;101640.22;;;12.53;100.00
18918;BME280;9591;52.742;13.650;2022-10-31T08:02:14;101631.00;;;12.66;100.00
18918;BME280;9591;52.742;13.650;2022-10-31T08:05:27;101639.75;;;12.69;100.00
18918;BME280;9591;52.742;13.650;2022-10-31T08:08:44;101642.88;;;12.85;100.00
18918;BME280;9591;52.742;13.650;2022-10-31T08:11:30;101639.91;;;12.97;100.00
18918;BME280;9591;52.742;13.650;2022-10-31T08:14:20;101646.28;;;12.90;100.00
18918;BME280;9591;52.742;13.650;2022-10-31T08:17:09;101642.00;;;12.85;100.00
18918;BME280;9591;52.742;13.650;2022-10-31T08:20:07;101646.72;;;12.75;100.00
18918;BME280;9591;52.742;13.650;2022-10-31T08:23:03;101645.09;;;12.69;100.00
18918;BME280;9591;52.742;13.650;2022-10-31T08:25:52;101641.38;;;12.75;100.00
18918;BME280;9591;52.742;13.650;2022-10-31T08:28:41;101646.66;;;12.76;100.00
18918;BME280;9591;52.742;13.650;2022-10-31T08:31:29;101646.41;;;12.86;100.00
18918;BME280;9591;52.742;13.650;2022-10-31T08:34:38;101646.13;;;12.96;100.00
18918;BME280;9591;52.742;13.650;2022-10-31T08:37:43;101649.38;;;13.06;100.00
18918;BME280;9591;52.742;13.650;2022-10-31T08:40:32;101641.13;;;13.17;100.00
18918;BME280;9591;52.742;13.650;2022-10-31T08:43:20;101644.44;;;13.25;100.00
18918;BME280;9591;52.742;13.650;2022-10-31T08:46:08;101644.34;;;13.28;100.00
18918;BME280;9591;52.742;13.650;2022-10-31T08:48:58;101650.22;;;13.39;100.00
18918;BME280;9591;52.742;13.650;2022-10-31T08:51:47;101650.06;;;13.45;100.00
18918;BME280;9591;52.742;13.650;2022-10-31T08:54:34;101649.72;;;13.56;100.00
18918;BME280;9591;52.742;13.650;2022-10-31T08:57:40;101657.72;;;13.56;100.00
18918;BME280;9591;52.742;13.650;2022-10-31T09:00:28;101658.47;;;13.61;100.00
18918;BME280;9591;52.742;13.650;2022-10-31T09:03:21;101659.28;;;13.63;100.00
18918;BME280;9591;52.742;13.650;2022-10-31T09:06:09;101650.16;;;13.71;100.00
18918;BME280;9591;52.742;13.650;2022-10-31T09:08:56;101654.47;;;13.75;100.00
18918;BME280;9591;52.742;13.650;2022-10-31T09:11:44;101646.19;;;13.85;100.00
18918;BME280;9591;52.742;13.650;2022-10-31T09:14:49;101645.97;;;13.91;100.00
18918;BME280;9591;52.742;13.650;2022-10-31T09:17:46;101651.00;;;14.00;100.00
18918;BME280;9591;52.742;13.650;2022-10-31T09:20:40;101655.22;;;14.07;100.00
18918;BME280;9591;52.742;13.650;2022-10-31T09:23:30;101651.53;;;14.11;100.00
18918;BME280;9591;52.742;13.650;2022-10-31T09:26:18;101647.75;;;14.18;100.00
18918;BME280;9591;52.742;13.650;2022-10-31T09:29:13;101649.53;;;14.18;100.00
18918;BME280;9591;52.742;13.650;2022-10-31T09:32:01;101652.88;;;14.24;100.00
18918;BME280;9591;52.742;13.650;2022-10-31T09:34:51;101651.19;;;14.22;100.00
18918;BME280;9591;52.742;13.650;2022-10-31T09:37:38;101663.53;;;14.24;100.00
18918;BME280;9591;52.742;13.650;2022-10-31T09:40:31;101658.56;;;14.41;100.00
18918;BME280;9591;52.742;13.650;2022-10-31T09:43:24;101664.59;;;14.47;100.00
18918;BME280;9591;52.742;13.650;2022-10-31T09:46:17;101661.13;;;14.45;100.00
18918;BME280;9591;52.742;13.650;2022-10-31T09:49:46;101671.38;;;14.57;100.00
18918;BME280;9591;52.742;13.650;2022-10-31T09:52:38;101674.09;;;14.55;100.00
18918;BME280;9591;52.742;13.650;2022-10-31T09:55:31;101671.38;;;14.57;100.00
18918;BME280;9591;52.742;13.650;2022-10-31T09:58:25;101673.16;;;14.56;100.00
18918;BME280;9591;52.742;13.650;2022-10-31T10:01:30;101673.88;;;14.61;100.00
18918;BME280;9591;52.742;13.650;2022-10-31T10:04:34;101676.09;;;14.73;100.00
18918;BME280;9591;52.742;13.650;2022-10-31T10:07:40;101681.22;;;14.80;100.00
18918;BME280;9591;52.742;13.650;2022-10-31T10:10:51;101673.44;;;14.98;100.00
18918;BME280;9591;52.742;13.650;2022-10-31T10:13:55;101671.03;;;15.16;100.00
18918;BME280;9591;52.742;13.650;2022-10-31T10:16:56;101668.03;;;15.25;100.00
18918;BME280;9591;52.742;13.650;2022-10-31T10:20:01;101671.25;;;15.34;100.00
18918;BME280;9591;52.742;13.650;2022-10-31T10:22:56;101661.53;;;15.32;100.00
18918;BME280;9591;52.742;13.650;2022-10-31T10:25:53;101670.59;;;15.51;100.00
18918;BME280;9591;52.742;13.650;2022-10-31T10:28:46;101662.72;;;15.71;100.00
18918;BME280;9591;52.742;13.650;2022-10-31T10:31:39;101654.97;;;15.87;100.00
18918;BME280;9591;52.742;13.650;2022-10-31T10:34:30;101656.72;;;15.88;100.00
18918;BME280;9591;52.742;13.650;2022-10-31T10:37:24;101653.63;;;15.99;100.00
18918;BME280;9591;52.742;13.650;2022-10-31T10:40:16;101657.47;;;16.14;100.00
18918;BME280;9591;52.742;13.650;2022-10-31T10:43:28;101652.44;;;16.06;100.00
18918;BME280;9591;52.742;13.650;2022-10-31T10:46:18;101654.47;;;15.99;100.00
18918;BME280;9591;52.742;13.650;2022-10-31T10:49:28;101654.31;;;16.04;100.00
18918;BME280;9591;52.742;13.650;2022-10-31T10:52:25;101652.06;;;16.15;100.00
18918;BME280;9591;52.742;13.650;2022-10-31T10:55:38;101648.72;;;16.10;100.00
18918;BME280;9591;52.742;13.650;2022-10-31T10:58:30;101654.97;;;16.09;100.00
18918;BME280;9591;52.742;13.650;2022-10-31T11:01:17;101645.22;;;16.08;100.00
18918;BME280;9591;52.742;13.650;2022-10-31T11:04:21;101639.38;;;16.20;100.00
18918;BME280;9591;52.742;13.650;2022-10-31T11:07:11;101626.69;;;16.25;100.00
18918;BME280;9591;52.742;13.650;2022-10-31T11:10:03;101634.59;;;16.28;100.00
18918;BME280;9591;52.742;13.650;2022-10-31T11:13:20;101640.75;;;16.30;100.00
18918;BME280;9591;52.742;13.650;2022-10-31T11:16:11;101648.44;;;16.38;100.00
18918;BME280;9591;52.742;13.650;2022-10-31T11:19:08;101649.25;;;16.40;100.00
18918;BME280;9591;52.742;13.650;2022-10-31T11:22:05;101638.88;;;16.53;100.00
18918;BME280;9591;52.742;13.650;2022-10-31T11:24:52;101636.47;;;16.47;100.00
18918;BME280;9591;52.742;13.650;2022-10-31T11:27:38;101629.59;;;16.41;100.00
18918;BME280;9591;52.742;13.650;2022-10-31T11:30:25;101627.19;;;16.55;100.00
18918;BME280;9591;52.742;13.650;2022-10-31T11:33:19;101622.38;;;16.63;100.00
18918;BME280;9591;52.742;13.650;2022-10-31T11:36:15;101621.56;;;16.61;100.00
18918;BME280;9591;52.742;13.650;2022-10-31T11:39:04;101616.34;;;16.58;100.00
18918;BME280;9591;52.742;13.650;2022-10-31T11:41:52;101622.34;;;16.85;100.00
18918;BME280;9591;52.742;13.650;2022-10-31T11:44:42;101628.28;;;16.71;100.00
18918;BME280;9591;52.742;13.650;2022-10-31T11:47:31;101631.03;;;16.70;100.00
18918;BME280;9591;52.742;13.650;2022-10-31T11:50:22;101619.19;;;16.76;100.00
18918;BME280;9591;52.742;13.650;2022-10-31T11:53:13;101629.97;;;16.74;100.00
18918;BME280;9591;52.742;13.650;2022-10-31T11:56:04;101625.22;;;16.81;100.00
18918;BME280;9591;52.742;13.650;2022-10-31T11:58:55;101631.63;;;16.77;100.00
18918;BME280;9591;52.742;13.650;2022-10-31T12:01:47;101623.81;;;16.92;100.00
18918;BME280;9591;52.742;13.650;2022-10-31T12:04:39;101626.06;;;17.01;100.00
18918;BME280;9591;52.742;13.650;2022-10-31T12:07:29;101626.75;;;16.86;100.00
18918;BME280;9591;52.742;13.650;2022-10-31T12:10:21;101625.34;;;16.98;100.00
18918;BME280;9591;52.742;13.650;2022-10-31T12:13:31;101616.56;;;16.94;100.00
18918;BME280;9591;52.742;13.650;2022-10-31T12:16:24;101616.78;;;16.90;100.00
18918;BME280;9591;52.742;13.650;2022-10-31T12:19:21;101615.44;;;17.00;100.00
18918;BME280;9591;52.742;13.650;2022-10-31T12:22:16;101610.28;;;16.95;100.00
18918;BME280;9591;52.742;13.650;2022-10-31T12:25:20;101613.09;;;16.92;100.00
18918;BME280;9591;52.742;13.650;2022-10-31T12:28:19;101608.75;;;16.90;100.00
18918;BME280;9591;52.742;13.650;2022-10-31T12:31:23;101614.97;;;16.90;100.00
18918;BME280;9591;52.742;13.650;2022-10-31T12:34:38;101612.91;;;16.97;100.00
18918;BME280;9591;52.742;13.650;2022-10-31T12:37:48;101612.34;;;17.09;100.00
18918;BME280;9591;52.742;13.650;2022-10-31T12:43:56;101605.63;;;17.38;100.00
18918;BME280;9591;52.742;13.650;2022-10-31T12:46:55;101598.31;;;17.42;100.00
18918;BME280;9591;52.742;13.650;2022-10-31T12:49:51;101598.78;;;17.32;100.00
18918;BME280;9591;52.742;13.650;2022-10-31T12:52:51;101595.38;;;17.29;100.00
18918;BME280;9591;52.742;13.650;2022-10-31T12:55:59;101600.66;;;17.30;100.00
18918;BME280;9591;52.742;13.650;2022-10-31T12:58:52;101596.59;;;17.22;100.00
18918;BME280;9591;52.742;13.650;2022-10-31T13:01:47;101598.47;;;17.20;100.00
18918;BME280;9591;52.742;13.650;2022-10-31T13:04:41;101597.00;;;17.13;100.00
18918;BME280;9591;52.742;13.650;2022-10-31T13:07:34;101598.34;;;17.23;100.00
18918;BME280;9591;52.742;13.650;2022-10-31T13:10:25;101583.72;;;17.30;100.00
18918;BME280;9591;52.742;13.650;2022-10-31T13:13:16;101581.25;;;17.44;100.00
18918;BME280;9591;52.742;13.650;2022-10-31T13:16:11;101581.06;;;17.30;100.00
18918;BME280;9591;52.742;13.650;2022-10-31T13:19:02;101584.53;;;17.32;100.00
18918;BME280;9591;52.742;13.650;2022-10-31T13:21:57;101582.25;;;17.42;100.00
18918;BME280;9591;52.742;13.650;2022-10-31T13:24:52;101582.25;;;17.60;100.00
18918;BME280;9591;52.742;13.650;2022-10-31T13:27:45;101567.19;;;17.58;100.00
18918;BME280;9591;52.742;13.650;2022-10-31T13:30:38;101573.41;;;17.58;100.00
18918;BME280;9591;52.742;13.650;2022-10-31T13:33:29;101572.84;;;17.52;100.00
18918;BME280;9591;52.742;13.650;2022-10-31T13:36:24;101572.22;;;17.28;100.00
18918;BME280;9591;52.742;13.650;2022-10-31T13:39:21;101579.22;;;17.12;100.00
18918;BME280;9591;52.742;13.650;2022-10-31T13:42:15;101574.16;;;17.06;100.00
18918;BME280;9591;52.742;13.650;2022-10-31T13:45:19;101571.22;;;16.91;100.00
18918;BME280;9591;52.742;13.650;2022-10-31T13:48:32;101578.88;;;16.80;100.00
18918;BME280;9591;52.742;13.650;2022-10-31T13:51:30;101572.06;;;16.73;100.00
18918;BME280;9591;52.742;13.650;2022-10-31T13:54:21;101568.72;;;16.68;100.00
18918;BME280;9591;52.742;13.650;2022-10-31T13:57:16;101568.84;;;16.65;100.00
18918;BME280;9591;52.742;13.650;2022-10-31T14:00:06;101563.50;;;16.65;100.00
18918;BME280;9591;52.742;13.650;2022-10-31T14:02:57;101565.34;;;16.63;100.00
18918;BME280;9591;52.742;13.650;2022-10-31T14:05:51;101563.59;;;16.62;100.00
18918;BME280;9591;52.742;13.650;2022-10-31T14:08:42;101556.66;;;16.58;100.00
18918;BME280;9591;52.742;13.650;2022-10-31T14:11:33;101556.72;;;16.56;100.00
18918;BME280;9591;52.742;13.650;2022-10-31T14:14:23;101555.84;;;16.56;100.00
18918;BME280;9591;52.742;13.650;2022-10-31T14:17:22;101560.59;;;16.49;100.00
18918;BME280;9591;52.742;13.650;2022-10-31T14:20:38;101555.41;;;16.46;100.00
18918;BME280;9591;52.742;13.650;2022-10-31T14:23:34;101548.22;;;16.47;100.00
18918;BME280;9591;52.742;13.650;2022-10-31T14:26:31;101551.44;;;16.55;100.00
18918;BME280;9591;52.742;13.650;2022-10-31T14:29:26;101551.63;;;16.50;100.00
18918;BME280;9591;52.742;13.650;2022-10-31T14:32:21;101530.22;;;16.31;100.00
18918;BME280;9591;52.742;13.650;2022-10-31T14:35:13;101556.41;;;16.44;100.00
18918;BME280;9591;52.742;13.650;2022-10-31T14:38:20;101550.72;;;16.31;100.00
18918;BME280;9591;52.742;13.650;2022-10-31T14:41:40;101545.78;;;16.22;100.00
18918;BME280;9591;52.742;13.650;2022-10-31T14:44:56;101539.88;;;16.14;100.00
18918;BME280;9591;52.742;13.650;2022-10-31T14:47:59;101540.47;;;16.00;100.00
18918;BME280;9591;52.742;13.650;2022-10-31T14:50:53;101541.66;;;15.93;100.00
18918;BME280;9591;52.742;13.650;2022-10-31T14:53:45;101543.78;;;15.85;100.00
18918;BME280;9591;52.742;13.650;2022-10-31T14:56:36;101531.34;;;15.62;100.00
18918;BME280;9591;52.742;13.650;2022-10-31T14:59:28;101537.81;;;15.56;100.00
18918;BME280;9591;52.742;13.650;2022-10-31T15:02:20;101535.56;;;15.46;100.00
18918;BME280;9591;52.742;13.650;2022-10-31T15:05:10;101536.00;;;15.35;100.00
18918;BME280;9591;52.742;13.650;2022-10-31T15:07:58;101528.28;;;15.27;100.00